首页
METAR-TAF:

METAR-TAF

机场 :

Siler City, 北卡罗来纳州, 美国

纬度: 35-42-15N, 经度: 079-30-15W, 海拔: 187米

当前天气观测

该预报发布于20分钟前的14:15 UTC
风速6节,风向南转西南
温度 15°C
湿度 55%
气压 1029 hPa
能見度: 16.1公里
天空无云

METAR: KSCR 221415Z AUTO 20006KT 10SM CLR 15/06 A3038 RMK AO2 T01500064

时间: 10:35 (14:35 UTC)


TAF: 丢失

超过4000个机场的气象观测和天气预报(METAR&TAF报告)。

可查询的气象台以黄色和红色小点在地图上表示。

将鼠标移到小点上方,可查看气象台名称。

然后点击查看天气观测和预报。

如需切换地图:点击带黑十字的绿色按钮放大地图;点击带横线的绿色按钮缩小地图;或者点击绿色箭头查看邻近地区的地图。


METAR-TAF: